Time;durP1;ratioP1;P1;durP2;ratioP2;P2;SDS_P1;SDS_P2;PMS_P1;PMS_P2;Temp;Humidity;BMP_temperature;BMP_pressure;BME280_temperature;BME280_humidity;BME280_pressure;Samples;Min_cycle;Max_cycle;Signal;HPM_P1;HPM_P2
2023/12/14 00:02:09;;;;;;;;;;;7.50;99.90;;;;;;5066261;28;19994;-67
2023/12/14 00:04:37;;;;;;;;;;;7.50;99.90;;;;;;5066565;28;19976;-66
2023/12/14 00:07:04;;;;;;;;;;;7.50;99.90;;;;;;5066526;28;19991;-66
2023/12/14 00:09:31;;;;;;;;;;;7.50;99.90;;;;;;5064541;28;19979;-67
2023/12/14 00:11:57;;;;;;;;;;;7.50;99.90;;;;;;5067904;28;19976;-67
2023/12/14 00:14:24;;;;;;;;;;;7.50;99.90;;;;;;5065253;28;20064;-67
2023/12/14 00:16:50;;;;;;;;;;;7.50;99.90;;;;;;5065697;28;19991;-66
2023/12/14 00:19:17;;;;;;;;;;;7.50;99.90;;;;;;5064479;28;20508;-66
2023/12/14 00:21:45;;;;;;;;;;;7.50;99.90;;;;;;5063239;28;20037;-66
2023/12/14 00:24:12;;;;;;;;;;;7.50;99.90;;;;;;5065721;28;19979;-66
2023/12/14 00:26:38;;;;;;;;;;;7.50;99.90;;;;;;5065255;28;19979;-66
2023/12/14 00:29:05;;;;;;;;;;;7.50;99.90;;;;;;5066742;28;20014;-67
2023/12/14 00:31:31;;;;;;;;;;;7.50;99.90;;;;;;5065941;28;19995;-68
2023/12/14 00:33:58;;;;;;;;;;;7.50;99.90;;;;;;5064671;28;19980;-66
2023/12/14 00:36:25;;;;;;;;;;;7.50;99.90;;;;;;5066743;28;19983;-67
2023/12/14 00:38:52;;;;;;;;;;;7.50;99.90;;;;;;5065564;28;19995;-68
2023/12/14 00:41:19;;;;;;;;;;;7.50;99.90;;;;;;5065632;28;19979;-66
2023/12/14 00:43:45;;;;;;;;;;;7.50;99.90;;;;;;5063854;28;19980;-67
2023/12/14 00:46:12;;;;;;;;;;;7.50;99.90;;;;;;5065465;28;19991;-67
2023/12/14 00:48:38;;;;;;;;;;;7.50;99.90;;;;;;5065375;28;20002;-68
2023/12/14 00:51:05;;;;;;;;;;;7.50;99.90;;;;;;5063396;28;20053;-66
2023/12/14 00:53:32;;;;;;;;;;;7.50;99.90;;;;;;5064324;28;20460;-67
2023/12/14 00:55:59;;;;;;;;;;;7.50;99.90;;;;;;5065909;28;19988;-68
2023/12/14 00:58:26;;;;;;;;;;;7.50;99.90;;;;;;5063614;28;20042;-66
2023/12/14 01:00:54;;;;;;;;;;;7.50;99.90;;;;;;5064002;28;19995;-68
2023/12/14 01:03:20;;;;;;;;;;;7.50;99.90;;;;;;5063529;28;19983;-68
2023/12/14 01:05:47;;;;;;;;;;;7.50;99.90;;;;;;5064745;28;20041;-66
2023/12/14 01:08:14;;;;;;;;;;;7.50;99.90;;;;;;5065350;28;19995;-67
2023/12/14 01:10:41;;;;;;;;;;;7.40;99.90;;;;;;5068598;28;20504;-67
2023/12/14 01:13:09;;;;;;;;;;;7.40;99.90;;;;;;5066350;28;20448;-66
2023/12/14 01:15:35;;;;;;;;;;;7.50;99.90;;;;;;5062652;28;19999;-67
2023/12/14 01:18:02;;;;;;;;;;;7.40;99.90;;;;;;5064921;28;20319;-66
2023/12/14 01:20:29;;;;;;;;;;;7.40;99.90;;;;;;5064154;28;20667;-67
2023/12/14 01:22:55;;;;;;;;;;;7.50;99.90;;;;;;5065983;28;19979;-68
2023/12/14 01:25:22;;;;;;;;;;;7.50;99.90;;;;;;5066477;28;19986;-67
2023/12/14 01:27:48;;;;;;;;;;;7.50;99.90;;;;;;5065342;28;20794;-66
2023/12/14 01:30:16;;;;;;;;;;;7.40;99.90;;;;;;5063863;28;19983;-67
2023/12/14 01:32:43;;;;;;;;;;;7.40;99.90;;;;;;5065771;28;19980;-67
2023/12/14 01:35:09;;;;;;;;;;;7.40;99.90;;;;;;5066521;28;19991;-66
2023/12/14 01:37:36;;;;;;;;;;;7.40;99.90;;;;;;5063651;28;19999;-66
2023/12/14 01:40:03;;;;;;;;;;;7.40;99.90;;;;;;5063686;28;20643;-67
2023/12/14 01:42:29;;;;;;;;;;;7.40;99.90;;;;;;5065367;28;19990;-66
2023/12/14 01:44:56;;;;;;;;;;;7.40;99.90;;;;;;5067163;28;19983;-67
2023/12/14 01:47:23;;;;;;;;;;;7.40;99.90;;;;;;5067978;28;20022;-67
2023/12/14 01:49:50;;;;;;;;;;;7.40;99.90;;;;;;5067521;28;19982;-67
2023/12/14 01:52:17;;;;;;;;;;;7.40;99.90;;;;;;5065737;28;20376;-67
2023/12/14 01:54:43;;;;;;;;;;;7.40;99.90;;;;;;5068102;28;20002;-66
2023/12/14 01:57:10;;;;;;;;;;;7.40;99.90;;;;;;5068093;28;20578;-66
2023/12/14 01:59:36;;;;;;;;;;;7.40;99.90;;;;;;5068037;28;20041;-67
2023/12/14 02:02:05;;;;;;;;;;;7.40;99.90;;;;;;5069038;28;19991;-67
2023/12/14 02:04:33;;;;;;;;;;;7.40;99.90;;;;;;5069982;28;19980;-66
2023/12/14 02:07:00;;;;;;;;;;;7.40;99.90;;;;;;5069751;28;20184;-67
2023/12/14 02:09:26;;;;;;;;;;;7.40;99.90;;;;;;5067423;28;19982;-66
2023/12/14 02:11:53;;;;;;;;;;;7.40;99.90;;;;;;5065353;28;19979;-67
2023/12/14 02:14:22;;;;;;;;;;;7.40;99.90;;;;;;5065048;28;19979;-67
2023/12/14 02:16:49;;;;;;;;;;;7.40;99.90;;;;;;5065286;28;20005;-66
2023/12/14 02:19:15;;;;;;;;;;;7.40;99.90;;;;;;5066589;28;19983;-66
2023/12/14 02:21:43;;;;;;;;;;;7.40;99.90;;;;;;5067345;28;20501;-66
2023/12/14 02:24:11;;;;;;;;;;;7.40;99.90;;;;;;5065793;28;20002;-67
2023/12/14 02:26:37;;;;;;;;;;;7.40;99.90;;;;;;5068260;28;19976;-66
2023/12/14 02:29:04;;;;;;;;;;;7.40;99.90;;;;;;5069208;28;20938;-66
2023/12/14 02:31:30;;;;;;;;;;;7.40;99.90;;;;;;5065266;28;19999;-68
2023/12/14 02:33:57;;;;;;;;;;;7.40;99.90;;;;;;5069928;28;19987;-66
2023/12/14 02:36:24;;;;;;;;;;;7.40;99.90;;;;;;5065099;28;20002;-66
2023/12/14 02:38:50;;;;;;;;;;;7.40;99.90;;;;;;5068317;28;19990;-67
2023/12/14 02:41:18;;;;;;;;;;;7.40;99.90;;;;;;5066953;28;20373;-66
2023/12/14 02:43:44;;;;;;;;;;;7.40;99.90;;;;;;5067838;28;19990;-68
2023/12/14 02:46:15;;;;;;;;;;;7.40;99.90;;;;;;5065296;28;19995;-66
2023/12/14 02:48:42;;;;;;;;;;;7.40;99.90;;;;;;5062820;28;19999;-66
2023/12/14 02:51:12;;;;;;;;;;;7.40;99.90;;;;;;5065684;28;19976;-66
2023/12/14 02:53:39;;;;;;;;;;;7.40;99.90;;;;;;5064486;28;19979;-67
2023/12/14 02:56:06;;;;;;;;;;;7.40;99.90;;;;;;5067787;28;19995;-66
2023/12/14 02:58:33;;;;;;;;;;;7.40;99.90;;;;;;5066300;28;19999;-67
2023/12/14 03:01:00;;;;;;;;;;;7.40;99.90;;;;;;5067741;28;19995;-67
2023/12/14 03:03:26;;;;;;;;;;;7.40;99.90;;;;;;5044980;28;20445;-67
2023/12/14 03:05:55;;;;;;;;;;;7.40;99.90;;;;;;5045082;28;19998;-66
2023/12/14 03:08:21;;;;;;;;;;;7.40;99.90;;;;;;5043117;28;20003;-67
2023/12/14 03:10:48;;;;;;;;;;;7.40;99.90;;;;;;5045384;28;20022;-65
2023/12/14 03:13:14;;;;;;;;;;;7.40;99.90;;;;;;5044856;28;19983;-68
2023/12/14 03:15:43;;;;;;;;;;;7.40;99.90;;;;;;5042270;28;20004;-67
2023/12/14 03:18:09;;;;;;;;;;;7.40;99.90;;;;;;5043721;28;19991;-67
2023/12/14 03:20:36;;;;;;;;;;;7.40;99.90;;;;;;5044342;28;19990;-66
2023/12/14 03:23:03;;;;;;;;;;;7.40;99.90;;;;;;5044216;28;19984;-67
2023/12/14 03:25:28;;;;;;;;;;;7.40;99.90;;;;;;5043915;28;19984;-67
2023/12/14 03:27:55;;;;;;;;;;;7.40;99.90;;;;;;5043717;28;19991;-67
2023/12/14 03:30:22;;;;;;;;;;;7.40;99.90;;;;;;5043795;28;19991;-67
2023/12/14 03:32:49;;;;;;;;;;;7.40;99.90;;;;;;5043737;28;20035;-66
2023/12/14 03:35:16;;;;;;;;;;;7.40;99.90;;;;;;5044504;28;20000;-67
2023/12/14 03:37:42;;;;;;;;;;;7.40;99.90;;;;;;5044622;28;19992;-66
2023/12/14 03:40:09;;;;;;;;;;;7.40;99.90;;;;;;5042958;28;20038;-67
2023/12/14 03:42:36;;;;;;;;;;;7.40;99.90;;;;;;5044250;28;19991;-66
2023/12/14 03:45:02;;;;;;;;;;;7.40;99.90;;;;;;5042906;28;20030;-67
2023/12/14 03:47:29;;;;;;;;;;;7.40;99.90;;;;;;5045600;28;20006;-66
2023/12/14 03:49:57;;;;;;;;;;;7.40;99.90;;;;;;5042603;28;20637;-66
2023/12/14 03:52:23;;;;;;;;;;;7.40;99.90;;;;;;5043008;28;19980;-67
2023/12/14 03:54:50;;;;;;;;;;;7.40;99.90;;;;;;5044157;28;19980;-66
2023/12/14 03:57:16;;;;;;;;;;;7.40;99.90;;;;;;5044545;28;20004;-66
2023/12/14 03:59:43;;;;;;;;;;;7.40;99.90;;;;;;5043708;28;19987;-67
2023/12/14 04:02:09;;;;;;;;;;;7.40;99.90;;;;;;5052228;28;20003;-67
2023/12/14 04:04:36;;;;;;;;;;;7.40;99.90;;;;;;5064761;28;19990;-67
2023/12/14 04:07:04;;;;;;;;;;;7.40;99.90;;;;;;5063334;28;20423;-67
2023/12/14 04:09:30;;;;;;;;;;;7.40;99.90;;;;;;5063236;28;20697;-68
2023/12/14 04:11:57;;;;;;;;;;;7.40;99.90;;;;;;5064788;28;19979;-66
2023/12/14 04:14:23;;;;;;;;;;;7.40;99.90;;;;;;5062361;28;19983;-66
2023/12/14 04:16:50;;;;;;;;;;;7.50;99.90;;;;;;5063122;28;19999;-66
2023/12/14 04:19:16;;;;;;;;;;;7.40;99.90;;;;;;5064155;28;20464;-66
2023/12/14 04:21:43;;;;;;;;;;;7.40;99.90;;;;;;5064062;28;20070;-67
2023/12/14 04:24:12;;;;;;;;;;;7.40;99.90;;;;;;5064179;28;19979;-67
2023/12/14 04:26:39;;;;;;;;;;;7.40;99.90;;;;;;5064261;28;19983;-66
2023/12/14 04:29:06;;;;;;;;;;;7.40;99.90;;;;;;5064055;28;20198;-66
2023/12/14 04:31:32;;;;;;;;;;;7.50;99.90;;;;;;5064796;28;20002;-66
2023/12/14 04:33:59;;;;;;;;;;;7.50;99.90;;;;;;5064357;28;19999;-66
2023/12/14 04:36:25;;;;;;;;;;;7.50;99.90;;;;;;5063799;28;20018;-66
2023/12/14 04:38:52;;;;;;;;;;;7.50;99.90;;;;;;5065644;28;20022;-67
2023/12/14 04:41:20;;;;;;;;;;;7.50;99.90;;;;;;5064924;28;20435;-66
2023/12/14 04:43:46;;;;;;;;;;;7.50;99.90;;;;;;5063562;28;19984;-66
2023/12/14 04:46:13;;;;;;;;;;;7.50;99.90;;;;;;5064958;28;20106;-67
2023/12/14 04:48:40;;;;;;;;;;;7.50;99.90;;;;;;5064819;28;19991;-66
2023/12/14 04:51:06;;;;;;;;;;;7.40;99.90;;;;;;5064338;28;20021;-67
2023/12/14 04:53:33;;;;;;;;;;;7.40;99.90;;;;;;5063816;28;20009;-66
2023/12/14 04:55:59;;;;;;;;;;;7.50;99.90;;;;;;5064917;28;19999;-66
2023/12/14 04:58:27;;;;;;;;;;;7.40;99.90;;;;;;5064438;28;19996;-67
2023/12/14 05:00:54;;;;;;;;;;;7.50;99.90;;;;;;5064628;28;20002;-66
2023/12/14 05:03:20;;;;;;;;;;;7.50;99.90;;;;;;5065015;28;20743;-66
2023/12/14 05:05:47;;;;;;;;;;;7.40;99.90;;;;;;5065698;28;19980;-65
2023/12/14 05:08:13;;;;;;;;;;;7.40;99.90;;;;;;5063622;28;20006;-66
2023/12/14 05:10:40;;;;;;;;;;;7.40;99.90;;;;;;5065576;28;20518;-67
2023/12/14 05:13:06;;;;;;;;;;;7.50;99.90;;;;;;5065519;28;20737;-66
2023/12/14 05:15:35;;;;;;;;;;;7.40;99.90;;;;;;5061259;28;19992;-67
2023/12/14 05:18:01;;;;;;;;;;;7.40;99.90;;;;;;5066942;28;19997;-67
2023/12/14 05:20:28;;;;;;;;;;;7.40;99.90;;;;;;5068459;28;19996;-65
2023/12/14 05:22:55;;;;;;;;;;;7.50;99.90;;;;;;5068658;28;20379;-65
2023/12/14 05:25:21;;;;;;;;;;;7.50;99.90;;;;;;5068979;28;19976;-67
2023/12/14 05:27:48;;;;;;;;;;;7.40;99.90;;;;;;5069458;28;19991;-66
2023/12/14 05:30:14;;;;;;;;;;;7.50;99.90;;;;;;5069356;28;19986;-66
2023/12/14 05:32:42;;;;;;;;;;;7.50;99.90;;;;;;5071114;28;20136;-67
2023/12/14 05:35:10;;;;;;;;;;;7.40;99.90;;;;;;5071978;28;19991;-68
2023/12/14 05:37:37;;;;;;;;;;;7.40;99.90;;;;;;5068873;28;20443;-66
2023/12/14 05:40:03;;;;;;;;;;;7.50;99.90;;;;;;5068237;28;19987;-65
2023/12/14 05:42:30;;;;;;;;;;;7.50;99.90;;;;;;5067089;28;19982;-66
2023/12/14 05:44:56;;;;;;;;;;;7.50;99.90;;;;;;5069085;28;20067;-66
2023/12/14 05:47:25;;;;;;;;;;;7.40;99.90;;;;;;5068293;28;20381;-66
2023/12/14 05:49:52;;;;;;;;;;;7.50;99.90;;;;;;5065943;28;19980;-67
2023/12/14 05:52:19;;;;;;;;;;;7.50;99.90;;;;;;5064847;28;19979;-67
2023/12/14 05:54:45;;;;;;;;;;;7.40;99.90;;;;;;5069173;28;19979;-66
2023/12/14 05:57:12;;;;;;;;;;;7.40;99.90;;;;;;5067424;28;20057;-66
2023/12/14 05:59:39;;;;;;;;;;;7.40;99.90;;;;;;5067309;28;20036;-66
2023/12/14 06:02:06;;;;;;;;;;;7.40;99.90;;;;;;5069286;28;19999;-66
2023/12/14 06:04:33;;;;;;;;;;;7.40;99.90;;;;;;5069497;28;20025;-66
2023/12/14 06:07:00;;;;;;;;;;;7.40;99.90;;;;;;5068274;28;19979;-66
2023/12/14 06:09:33;;;;;;;;;;;7.50;99.90;;;;;;5067772;28;20005;-66
2023/12/14 06:12:00;;;;;;;;;;;7.50;99.90;;;;;;5070616;28;20007;-67
2023/12/14 06:14:26;;;;;;;;;;;7.50;99.90;;;;;;5066588;28;19980;-67
2023/12/14 06:16:53;;;;;;;;;;;7.40;99.90;;;;;;5067636;28;20541;-66
2023/12/14 06:19:20;;;;;;;;;;;7.40;99.90;;;;;;5068545;28;19987;-66
2023/12/14 06:21:46;;;;;;;;;;;7.40;99.90;;;;;;5067729;28;20028;-67
2023/12/14 06:24:14;;;;;;;;;;;7.40;99.90;;;;;;5067931;28;20105;-67
2023/12/14 06:26:41;;;;;;;;;;;7.40;99.90;;;;;;5066926;28;19983;-65
2023/12/14 06:29:08;;;;;;;;;;;7.40;99.90;;;;;;5067408;28;20750;-66
2023/12/14 06:31:34;;;;;;;;;;;7.40;99.90;;;;;;5067857;28;19991;-65
2023/12/14 06:34:03;;;;;;;;;;;7.40;99.90;;;;;;5069822;28;19972;-67
2023/12/14 06:36:30;;;;;;;;;;;7.40;99.90;;;;;;5066363;28;19999;-67
2023/12/14 06:38:56;;;;;;;;;;;7.40;99.90;;;;;;5069235;28;19995;-66
2023/12/14 06:41:25;;;;;;;;;;;7.40;99.90;;;;;;5067893;28;19979;-66
2023/12/14 06:43:52;;;;;;;;;;;7.50;99.90;;;;;;5067589;28;19982;-66
2023/12/14 06:46:18;;;;;;;;;;;7.40;99.90;;;;;;5068062;28;20011;-66
2023/12/14 06:48:45;;;;;;;;;;;7.40;99.90;;;;;;5066757;28;20000;-65
2023/12/14 06:51:12;;;;;;;;;;;7.40;99.90;;;;;;5066162;28;20348;-66
2023/12/14 06:53:40;;;;;;;;;;;7.40;99.90;;;;;;5066704;28;19976;-66
2023/12/14 06:56:09;;;;;;;;;;;7.40;99.90;;;;;;5069843;28;20259;-66
2023/12/14 06:58:37;;;;;;;;;;;7.40;99.90;;;;;;5062938;28;19995;-66
2023/12/14 07:01:04;;;;;;;;;;;7.40;99.90;;;;;;5067548;28;19999;-66
2023/12/14 07:03:30;;;;;;;;;;;7.40;99.90;;;;;;5067691;28;20028;-67
2023/12/14 07:05:57;;;;;;;;;;;7.40;99.90;;;;;;5067080;28;19986;-66
2023/12/14 07:08:24;;;;;;;;;;;7.40;99.90;;;;;;5065561;28;20004;-67
2023/12/14 07:10:51;;;;;;;;;;;7.40;99.90;;;;;;5067847;28;19982;-66
2023/12/14 07:13:17;;;;;;;;;;;7.40;99.90;;;;;;5067516;28;19983;-66
2023/12/14 07:15:45;;;;;;;;;;;7.40;99.90;;;;;;5063475;28;19995;-66
2023/12/14 07:18:12;;;;;;;;;;;7.40;99.90;;;;;;5063324;28;20034;-67
2023/12/14 07:20:39;;;;;;;;;;;7.40;99.90;;;;;;5066848;28;19982;-66
2023/12/14 07:23:05;;;;;;;;;;;7.40;99.90;;;;;;5066833;28;20062;-66
2023/12/14 07:25:32;;;;;;;;;;;7.40;99.90;;;;;;5068405;28;19979;-66
2023/12/14 07:27:58;;;;;;;;;;;7.40;99.90;;;;;;5067805;28;20045;-66
2023/12/14 07:30:25;;;;;;;;;;;7.40;99.90;;;;;;5065927;28;19979;-67
2023/12/14 07:32:53;;;;;;;;;;;7.40;99.90;;;;;;5066567;28;20054;-67
2023/12/14 07:35:19;;;;;;;;;;;7.40;99.90;;;;;;5067827;28;20396;-67
2023/12/14 07:37:46;;;;;;;;;;;7.40;99.90;;;;;;5067294;28;19995;-67
2023/12/14 07:40:13;;;;;;;;;;;7.40;99.90;;;;;;5064314;28;19998;-66
2023/12/14 07:42:39;;;;;;;;;;;7.40;99.90;;;;;;5064170;28;19975;-66
2023/12/14 07:45:08;;;;;;;;;;;7.40;99.90;;;;;;5066616;28;19999;-66
2023/12/14 07:47:35;;;;;;;;;;;7.40;99.90;;;;;;5065811;28;20098;-68
2023/12/14 07:50:03;;;;;;;;;;;7.40;99.90;;;;;;5064690;28;19976;-66
2023/12/14 07:52:30;;;;;;;;;;;7.40;99.90;;;;;;5064182;28;19994;-67
2023/12/14 07:54:56;;;;;;;;;;;7.40;99.90;;;;;;5064631;28;19980;-67
2023/12/14 07:57:23;;;;;;;;;;;7.40;99.90;;;;;;5062382;28;20472;-66
2023/12/14 07:59:50;;;;;;;;;;;7.40;99.90;;;;;;5065979;28;20021;-66
2023/12/14 08:02:16;;;;;;;;;;;7.40;99.90;;;;;;5063859;28;20561;-66
2023/12/14 08:04:43;;;;;;;;;;;7.40;99.90;;;;;;5067547;28;19975;-66
2023/12/14 08:07:11;;;;;;;;;;;7.40;99.90;;;;;;5064498;28;19995;-66
2023/12/14 08:09:37;;;;;;;;;;;7.40;99.90;;;;;;5066565;28;19991;-67
2023/12/14 08:12:04;;;;;;;;;;;7.40;99.90;;;;;;5067779;28;19979;-68
2023/12/14 08:14:32;;;;;;;;;;;7.40;99.90;;;;;;5062402;28;20472;-66
2023/12/14 08:16:59;;;;;;;;;;;7.40;99.90;;;;;;5063569;28;20544;-66
2023/12/14 08:19:25;;;;;;;;;;;7.40;99.90;;;;;;5064648;28;19983;-66
2023/12/14 08:21:52;;;;;;;;;;;7.40;99.90;;;;;;5066480;28;19976;-66
2023/12/14 08:24:20;;;;;;;;;;;7.40;99.90;;;;;;5065364;28;19983;-66
2023/12/14 08:26:46;;;;;;;;;;;7.40;99.90;;;;;;5065790;28;19984;-67
2023/12/14 08:29:13;;;;;;;;;;;7.40;99.90;;;;;;5063302;28;20029;-67
2023/12/14 08:31:39;;;;;;;;;;;7.40;99.90;;;;;;5066187;28;19991;-66
2023/12/14 08:34:06;;;;;;;;;;;7.40;99.90;;;;;;5065860;28;19975;-66
2023/12/14 08:36:32;;;;;;;;;;;7.40;99.90;;;;;;5066548;28;19975;-67
2023/12/14 08:38:59;;;;;;;;;;;7.40;99.90;;;;;;5066360;28;19991;-67
2023/12/14 08:41:27;;;;;;;;;;;7.40;99.90;;;;;;5065699;28;20026;-67
2023/12/14 08:43:55;;;;;;;;;;;7.40;99.90;;;;;;5065903;28;19976;-67
2023/12/14 08:46:22;;;;;;;;;;;7.40;99.90;;;;;;5064054;28;19995;-67
2023/12/14 08:48:49;;;;;;;;;;;7.50;99.90;;;;;;5064636;28;19995;-66
2023/12/14 08:51:17;;;;;;;;;;;7.40;99.90;;;;;;5063551;28;20070;-66
2023/12/14 08:53:44;;;;;;;;;;;7.50;99.90;;;;;;5068681;28;20070;-66
2023/12/14 08:56:10;;;;;;;;;;;7.50;99.90;;;;;;5070331;28;20008;-65
2023/12/14 08:58:38;;;;;;;;;;;7.40;99.90;;;;;;5069382;28;20753;-66
2023/12/14 09:01:05;;;;;;;;;;;7.40;99.90;;;;;;5070049;28;19995;-66
2023/12/14 09:03:31;;;;;;;;;;;7.50;99.90;;;;;;5069763;28;19975;-67
2023/12/14 09:05:59;;;;;;;;;;;7.50;99.90;;;;;;5070595;28;20074;-66
2023/12/14 09:08:25;;;;;;;;;;;7.50;99.90;;;;;;5067013;28;20026;-66
2023/12/14 09:10:52;;;;;;;;;;;7.50;99.90;;;;;;5069650;28;20066;-67
2023/12/14 09:13:19;;;;;;;;;;;7.50;99.90;;;;;;5069284;28;19991;-66
2023/12/14 09:15:47;;;;;;;;;;;7.50;99.90;;;;;;5066985;28;19991;-67
2023/12/14 09:18:13;;;;;;;;;;;7.50;99.90;;;;;;5067975;28;20058;-66
2023/12/14 09:20:42;;;;;;;;;;;7.50;99.90;;;;;;5067943;28;19982;-67
2023/12/14 09:23:09;;;;;;;;;;;7.50;99.90;;;;;;5068231;28;20095;-67
2023/12/14 09:25:35;;;;;;;;;;;7.50;99.90;;;;;;5070109;28;20381;-67
2023/12/14 09:28:02;;;;;;;;;;;7.50;99.90;;;;;;5068904;28;19991;-67
2023/12/14 09:30:28;;;;;;;;;;;7.50;99.90;;;;;;5068497;28;19995;-66
2023/12/14 09:32:56;;;;;;;;;;;7.50;99.90;;;;;;5068941;28;19979;-66
2023/12/14 09:35:23;;;;;;;;;;;7.50;99.90;;;;;;5068825;28;19987;-65
2023/12/14 09:37:50;;;;;;;;;;;7.50;99.90;;;;;;5067604;28;20002;-66
2023/12/14 09:40:16;;;;;;;;;;;7.50;99.90;;;;;;5069677;28;19978;-67
2023/12/14 09:42:43;;;;;;;;;;;7.50;99.90;;;;;;5067389;28;20679;-67
2023/12/14 09:45:10;;;;;;;;;;;7.50;99.90;;;;;;5069796;28;19981;-65
2023/12/14 09:47:37;;;;;;;;;;;7.50;99.90;;;;;;5067843;28;19995;-66
2023/12/14 09:50:05;;;;;;;;;;;7.60;99.90;;;;;;5066736;28;19975;-66
2023/12/14 09:52:33;;;;;;;;;;;7.50;99.90;;;;;;5064742;28;19980;-67
2023/12/14 09:55:00;;;;;;;;;;;7.60;99.90;;;;;;5071505;28;19982;-66
2023/12/14 09:57:26;;;;;;;;;;;7.60;99.90;;;;;;5068801;28;20002;-66
2023/12/14 09:59:53;;;;;;;;;;;7.60;99.90;;;;;;5069750;28;20432;-67
2023/12/14 10:02:19;;;;;;;;;;;7.50;99.90;;;;;;5067244;28;20090;-67
2023/12/14 10:04:47;;;;;;;;;;;7.60;99.90;;;;;;5069270;28;19982;-66
2023/12/14 10:07:16;;;;;;;;;;;7.60;99.90;;;;;;5068023;28;20100;-66
2023/12/14 10:09:43;;;;;;;;;;;7.60;99.90;;;;;;5064909;28;20029;-66
2023/12/14 10:12:10;;;;;;;;;;;7.60;99.90;;;;;;5068957;28;20497;-67
2023/12/14 10:14:37;;;;;;;;;;;7.60;99.90;;;;;;5066610;28;19983;-66
2023/12/14 10:17:17;;;;;;;;;;;7.60;99.90;;;;;;5068732;28;19991;-67
2023/12/14 10:19:44;;;;;;;;;;;7.60;99.90;;;;;;5067207;28;20018;-67
2023/12/14 10:22:11;;;;;;;;;;;7.70;99.90;;;;;;5068754;28;20070;-66
2023/12/14 10:24:40;;;;;;;;;;;7.70;99.90;;;;;;5066603;28;19979;-66
2023/12/14 10:27:07;;;;;;;;;;;7.70;99.90;;;;;;5069644;28;20373;-65
2023/12/14 10:29:35;;;;;;;;;;;7.70;99.90;;;;;;5066822;28;20066;-66
2023/12/14 10:32:03;;;;;;;;;;;7.70;99.90;;;;;;5070096;28;20074;-67
2023/12/14 10:34:30;;;;;;;;;;;7.70;99.90;;;;;;5067719;28;19983;-67
2023/12/14 10:36:56;;;;;;;;;;;7.70;99.90;;;;;;5066621;28;20000;-66
2023/12/14 10:39:23;;;;;;;;;;;7.70;99.90;;;;;;5066503;28;20023;-65
2023/12/14 10:41:54;;;;;;;;;;;7.70;99.90;;;;;;5067881;28;19975;-65
2023/12/14 10:44:21;;;;;;;;;;;7.70;99.90;;;;;;5067708;28;19975;-66
2023/12/14 10:46:49;;;;;;;;;;;7.70;99.90;;;;;;5066809;28;19991;-65
2023/12/14 10:49:16;;;;;;;;;;;7.70;99.90;;;;;;5066248;28;19989;-66
2023/12/14 10:51:43;;;;;;;;;;;7.70;99.90;;;;;;5065020;28;20073;-66
2023/12/14 10:54:10;;;;;;;;;;;7.80;99.90;;;;;;5069064;28;20080;-67
2023/12/14 10:56:36;;;;;;;;;;;7.70;99.90;;;;;;5067420;28;20570;-66
2023/12/14 10:59:04;;;;;;;;;;;7.80;99.90;;;;;;5066544;28;19996;-67
2023/12/14 11:01:34;;;;;;;;;;;7.80;99.90;;;;;;5067071;28;19996;-68
2023/12/14 11:04:01;;;;;;;;;;;7.80;99.90;;;;;;5069099;28;19979;-67
2023/12/14 11:06:32;;;;;;;;;;;7.80;99.90;;;;;;5067620;28;19987;-66
2023/12/14 11:09:00;;;;;;;;;;;7.80;99.90;;;;;;5066147;28;20003;-67
2023/12/14 11:11:30;;;;;;;;;;;7.80;99.90;;;;;;5067522;28;19998;-66
2023/12/14 11:13:57;;;;;;;;;;;7.80;99.90;;;;;;5065469;28;19983;-67
2023/12/14 11:16:27;;;;;;;;;;;7.80;99.90;;;;;;5067335;28;19999;-66
2023/12/14 11:19:08;;;;;;;;;;;7.80;99.90;;;;;;5066036;28;20366;-66
2023/12/14 11:21:34;;;;;;;;;;;7.90;99.90;;;;;;5063658;28;20064;-66
2023/12/14 11:24:02;;;;;;;;;;;7.90;99.90;;;;;;5068057;28;20471;-67
2023/12/14 11:26:28;;;;;;;;;;;7.80;99.90;;;;;;5066711;28;19986;-67
2023/12/14 11:28:55;;;;;;;;;;;7.90;99.90;;;;;;5066808;28;20228;-68
2023/12/14 11:31:23;;;;;;;;;;;7.90;99.90;;;;;;5066487;28;20011;-67
2023/12/14 11:33:50;;;;;;;;;;;7.90;99.90;;;;;;5066062;28;19982;-66
2023/12/14 11:36:17;;;;;;;;;;;7.90;99.90;;;;;;5064985;28;20006;-66
2023/12/14 11:38:44;;;;;;;;;;;7.90;99.90;;;;;;5066523;28;19995;-66
2023/12/14 11:41:11;;;;;;;;;;;7.90;99.90;;;;;;5065887;28;20461;-66
2023/12/14 11:43:41;;;;;;;;;;;7.90;99.90;;;;;;5065981;28;20338;-69
2023/12/14 11:46:08;;;;;;;;;;;7.90;99.90;;;;;;5066147;28;20453;-67
2023/12/14 11:48:34;;;;;;;;;;;7.90;99.90;;;;;;5063974;28;20480;-66
2023/12/14 11:51:02;;;;;;;;;;;7.90;99.90;;;;;;5063776;28;20066;-67
2023/12/14 11:53:30;;;;;;;;;;;7.90;99.90;;;;;;5064209;28;19980;-65
2023/12/14 11:55:56;;;;;;;;;;;7.90;99.90;;;;;;5068311;28;19983;-66
2023/12/14 11:58:25;;;;;;;;;;;7.90;99.90;;;;;;5063549;28;20003;-67
2023/12/14 12:00:51;;;;;;;;;;;7.90;99.90;;;;;;5065779;28;19999;-66
2023/12/14 12:03:19;;;;;;;;;;;7.90;99.90;;;;;;5066975;28;19988;-67
2023/12/14 12:05:47;;;;;;;;;;;7.90;99.90;;;;;;5065374;28;20335;-66
2023/12/14 12:08:15;;;;;;;;;;;7.90;99.90;;;;;;5063436;28;19998;-67
2023/12/14 12:10:42;;;;;;;;;;;7.90;99.90;;;;;;5065220;28;19979;-66
2023/12/14 12:13:12;;;;;;;;;;;7.90;99.90;;;;;;5066345;28;19983;-66
2023/12/14 12:15:38;;;;;;;;;;;7.90;99.90;;;;;;5062919;28;19996;-66
2023/12/14 12:18:06;;;;;;;;;;;7.90;99.90;;;;;;5065086;28;20453;-66
2023/12/14 12:20:33;;;;;;;;;;;8.00;99.90;;;;;;5065314;28;19979;-68
2023/12/14 12:22:59;;;;;;;;;;;7.90;99.90;;;;;;5062134;28;20591;-65
2023/12/14 12:25:27;;;;;;;;;;;8.00;99.90;;;;;;5066127;28;19983;-66
2023/12/14 12:27:54;;;;;;;;;;;8.00;99.90;;;;;;5066541;28;20384;-66
2023/12/14 12:30:21;;;;;;;;;;;7.90;99.90;;;;;;5065158;28;19987;-66
2023/12/14 12:32:47;;;;;;;;;;;8.00;99.90;;;;;;5063996;28;20038;-66
2023/12/14 12:35:14;;;;;;;;;;;7.90;99.90;;;;;;5065218;28;20365;-66
2023/12/14 12:37:40;;;;;;;;;;;8.00;99.90;;;;;;5062512;28;20090;-67
2023/12/14 12:40:08;;;;;;;;;;;8.00;99.90;;;;;;5064529;28;20085;-66
2023/12/14 12:42:36;;;;;;;;;;;8.00;99.90;;;;;;5064957;28;20009;-67
2023/12/14 12:45:02;;;;;;;;;;;7.90;99.90;;;;;;5066226;28;20384;-67
2023/12/14 12:47:29;;;;;;;;;;;8.00;99.90;;;;;;5063704;28;19995;-66
2023/12/14 12:49:56;;;;;;;;;;;8.00;99.90;;;;;;5063287;28;20014;-67
2023/12/14 12:52:22;;;;;;;;;;;8.00;99.90;;;;;;5064434;28;19979;-67
2023/12/14 12:54:49;;;;;;;;;;;8.00;99.90;;;;;;5064960;28;19987;-67
2023/12/14 12:57:15;;;;;;;;;;;8.00;99.90;;;;;;5063653;28;19996;-67
2023/12/14 12:59:43;;;;;;;;;;;8.00;99.90;;;;;;5063780;28;20020;-66
2023/12/14 13:02:10;;;;;;;;;;;8.00;99.90;;;;;;5062914;28;20038;-66
2023/12/14 13:04:37;;;;;;;;;;;8.00;99.90;;;;;;5066667;28;20025;-66
2023/12/14 13:07:04;;;;;;;;;;;8.00;99.90;;;;;;5065331;28;20006;-67
2023/12/14 13:09:30;;;;;;;;;;;8.00;99.90;;;;;;5064210;28;20150;-66
2023/12/14 13:11:57;;;;;;;;;;;8.00;99.90;;;;;;5066753;28;19975;-66
2023/12/14 13:14:23;;;;;;;;;;;8.00;99.90;;;;;;5064006;28;19983;-67
2023/12/14 13:16:51;;;;;;;;;;;8.00;99.90;;;;;;5065295;28;20078;-67
2023/12/14 13:19:18;;;;;;;;;;;8.00;99.90;;;;;;5064262;28;19999;-65
2023/12/14 13:21:44;;;;;;;;;;;8.00;99.90;;;;;;5062799;28;20598;-66
2023/12/14 13:24:11;;;;;;;;;;;8.00;99.90;;;;;;5067538;28;20026;-65
2023/12/14 13:26:38;;;;;;;;;;;8.00;99.90;;;;;;5065083;28;19987;-66
2023/12/14 13:29:04;;;;;;;;;;;8.00;99.90;;;;;;5065648;28;19992;-66
2023/12/14 13:31:31;;;;;;;;;;;8.00;99.90;;;;;;5064607;28;20000;-67
2023/12/14 13:33:59;;;;;;;;;;;8.00;99.90;;;;;;5067432;28;19998;-67
2023/12/14 13:36:25;;;;;;;;;;;8.00;99.90;;;;;;5062265;28;19984;-66
2023/12/14 13:38:52;;;;;;;;;;;8.00;99.90;;;;;;5069096;28;19995;-68
2023/12/14 13:41:18;;;;;;;;;;;8.00;99.90;;;;;;5070358;28;20006;-66
2023/12/14 13:43:46;;;;;;;;;;;8.10;99.90;;;;;;5067416;28;19979;-68
2023/12/14 13:46:12;;;;;;;;;;;8.00;99.90;;;;;;5067592;28;20077;-67
2023/12/14 13:48:39;;;;;;;;;;;8.00;99.90;;;;;;5066081;28;20007;-66
2023/12/14 13:51:08;;;;;;;;;;;8.10;99.90;;;;;;5066825;28;20343;-66
2023/12/14 13:53:34;;;;;;;;;;;8.00;99.90;;;;;;5067225;28;20082;-66
2023/12/14 13:56:01;;;;;;;;;;;8.10;99.90;;;;;;5068582;28;19975;-67
2023/12/14 13:58:27;;;;;;;;;;;8.10;99.90;;;;;;5069280;28;20070;-66
2023/12/14 14:00:54;;;;;;;;;;;8.00;99.90;;;;;;5068720;28;20078;-66
2023/12/14 14:03:20;;;;;;;;;;;8.10;99.90;;;;;;5068768;28;19984;-66
2023/12/14 14:05:47;;;;;;;;;;;8.10;99.90;;;;;;5068290;28;21979;-66
2023/12/14 14:08:15;;;;;;;;;;;8.10;99.90;;;;;;5064400;28;20196;-66
2023/12/14 14:10:41;;;;;;;;;;;8.10;99.90;;;;;;5068993;28;20029;-67
2023/12/14 14:13:08;;;;;;;;;;;8.10;99.90;;;;;;5068505;28;19983;-67
2023/12/14 14:15:34;;;;;;;;;;;8.10;99.90;;;;;;5066287;28;20581;-66
2023/12/14 14:18:01;;;;;;;;;;;8.10;99.90;;;;;;5069715;28;20018;-67
2023/12/14 14:20:27;;;;;;;;;;;8.10;99.90;;;;;;5066927;28;20037;-66
2023/12/14 14:22:54;;;;;;;;;;;8.10;99.90;;;;;;5065843;28;19979;-67
2023/12/14 14:25:22;;;;;;;;;;;8.10;99.90;;;;;;5069639;28;19979;-66
2023/12/14 14:27:48;;;;;;;;;;;8.10;99.90;;;;;;5067062;28;20515;-65
2023/12/14 14:30:15;;;;;;;;;;;8.10;99.90;;;;;;5067248;28;20180;-67